Time;durP1;ratioP1;P1;durP2;ratioP2;P2;SDS_P1;SDS_P2;PMS_P1;PMS_P2;Temp;Humidity;BMP_temperature;BMP_pressure;BME280_temperature;BME280_humidity;BME280_pressure;Samples;Min_cycle;Max_cycle;Signal;HPM_P1;HPM_P2
2023/04/28 00:00:04;;;;;;;8.07;4.88;;;6.20;99.90;;;;;;5051798;28;20044;-80
2023/04/28 00:02:30;;;;;;;7.38;4.72;;;6.20;99.90;;;;;;5050753;28;20033;-80
2023/04/28 00:04:56;;;;;;;7.20;5.25;;;6.10;99.90;;;;;;5051901;28;20041;-80
2023/04/28 00:07:22;;;;;;;8.30;6.15;;;6.10;99.90;;;;;;5050503;28;20040;-80
2023/04/28 00:09:48;;;;;;;7.25;5.38;;;6.10;99.90;;;;;;5050948;28;20043;-80
2023/04/28 00:12:13;;;;;;;7.63;5.55;;;6.10;99.90;;;;;;5050689;28;20138;-80
2023/04/28 00:14:39;;;;;;;7.75;5.15;;;6.10;99.90;;;;;;5050633;28;20132;-80
2023/04/28 00:17:05;;;;;;;7.80;5.60;;;6.00;99.90;;;;;;5050472;28;20115;-80
2023/04/28 00:19:30;;;;;;;7.43;5.50;;;6.00;99.90;;;;;;5051204;28;20033;-79
2023/04/28 00:21:56;;;;;;;9.88;5.28;;;6.00;99.90;;;;;;5050203;28;20095;-80
2023/04/28 00:24:21;;;;;;;8.15;5.22;;;6.00;99.90;;;;;;5050180;28;20437;-80
2023/04/28 00:26:47;;;;;;;7.40;5.32;;;6.00;99.90;;;;;;5050517;28;20481;-80
2023/04/28 00:29:12;;;;;;;6.50;4.70;;;6.00;99.90;;;;;;5049998;28;20408;-80
2023/04/28 00:31:38;;;;;;;8.00;5.57;;;6.00;99.90;;;;;;5051698;28;20467;-80
2023/04/28 00:34:03;;;;;;;9.07;5.18;;;6.00;99.90;;;;;;5050420;28;20451;-80
2023/04/28 00:36:31;;;;;;;7.55;5.60;;;6.00;99.90;;;;;;5049923;28;20116;-80
2023/04/28 00:38:57;;;;;;;7.78;5.35;;;6.00;99.90;;;;;;5050004;28;20501;-81
2023/04/28 00:41:23;;;;;;;8.23;5.45;;;6.00;99.90;;;;;;5051431;28;20459;-79
2023/04/28 00:43:49;;;;;;;8.55;5.53;;;6.00;99.90;;;;;;5050267;28;20029;-80
2023/04/28 00:46:30;;;;;;;8.45;5.57;;;6.00;99.90;;;;;;5050053;28;20080;-80
2023/04/28 00:48:57;;;;;;;10.15;5.93;;;6.00;99.90;;;;;;5051540;28;20037;-80
2023/04/28 00:51:22;;;;;;;9.65;5.78;;;6.00;99.90;;;;;;5049864;28;20041;-80
2023/04/28 00:53:49;;;;;;;10.13;5.40;;;6.00;99.90;;;;;;5051252;28;20029;-80
2023/04/28 00:56:14;;;;;;;7.22;5.32;;;6.00;99.90;;;;;;5059719;28;20051;-80
2023/04/28 00:58:40;;;;;;;8.60;6.00;;;6.00;99.90;;;;;;5054389;28;20041;-80
2023/04/28 01:01:07;;;;;;;9.13;6.03;;;5.90;99.90;;;;;;5051404;28;20037;-80
2023/04/28 01:03:36;;;;;;;8.45;5.47;;;5.90;99.90;;;;;;5051246;28;20136;-79
2023/04/28 01:06:05;;;;;;;9.48;6.25;;;5.90;99.90;;;;;;5050082;28;20055;-80
2023/04/28 01:08:32;;;;;;;9.02;5.88;;;5.90;99.90;;;;;;5052769;28;20053;-80
2023/04/28 01:10:57;;;;;;;9.48;6.28;;;5.90;99.90;;;;;;5053547;28;20051;-80
2023/04/28 01:13:23;;;;;;;7.72;5.65;;;5.80;99.90;;;;;;5054916;28;20037;-80
2023/04/28 01:15:49;;;;;;;8.38;6.18;;;5.80;99.90;;;;;;5054960;28;20045;-80
2023/04/28 01:18:15;;;;;;;7.50;5.32;;;5.90;99.90;;;;;;5054662;28;20055;-80
2023/04/28 01:20:41;;;;;;;9.10;6.07;;;5.80;99.90;;;;;;5053869;28;20118;-80
2023/04/28 01:23:16;;;;;;;9.27;5.75;;;5.90;99.90;;;;;;5053557;28;20037;-80
2023/04/28 01:25:42;;;;;;;9.27;6.22;;;5.90;99.90;;;;;;5054786;28;20109;-80
2023/04/28 01:28:09;;;;;;;8.55;5.82;;;5.80;99.90;;;;;;5054402;28;20349;-80
2023/04/28 01:30:35;;;;;;;10.25;6.35;;;5.80;99.90;;;;;;5053315;28;20041;-79
2023/04/28 01:33:01;;;;;;;8.43;5.70;;;5.80;99.90;;;;;;5054323;28;20040;-79
2023/04/28 01:35:27;;;;;;;7.30;5.78;;;5.80;99.90;;;;;;5053254;28;20041;-80
2023/04/28 01:37:52;;;;;;;7.90;5.63;;;5.80;99.90;;;;;;5053919;28;20041;-79
2023/04/28 01:40:18;;;;;;;9.18;5.90;;;5.70;99.90;;;;;;5053282;28;20040;-79
2023/04/28 01:42:44;;;;;;;8.15;5.57;;;5.70;99.90;;;;;;5054425;28;20423;-79
2023/04/28 01:45:10;;;;;;;9.65;6.32;;;5.70;99.90;;;;;;5053314;28;20051;-80
2023/04/28 01:47:35;;;;;;;9.57;6.10;;;5.60;99.90;;;;;;5052956;28;20045;-80
2023/04/28 01:50:01;;;;;;;11.52;5.90;;;5.70;99.90;;;;;;5052775;28;20489;-80
2023/04/28 01:52:27;;;;;;;9.63;5.72;;;5.60;99.90;;;;;;5054328;28;20464;-79
2023/04/28 01:54:53;;;;;;;8.55;6.07;;;5.60;99.90;;;;;;5052902;28;20698;-79
2023/04/28 01:57:19;;;;;;;11.18;6.22;;;5.60;99.90;;;;;;5066904;28;20060;-80
2023/04/28 01:59:45;;;;;;;8.63;6.50;;;5.50;99.90;;;;;;5052828;28;20036;-79
2023/04/28 02:02:10;;;;;;;9.93;6.45;;;5.60;99.90;;;;;;5036474;28;20037;-79
2023/04/28 02:04:39;;;;;;;9.88;6.30;;;5.50;99.90;;;;;;5054147;28;20037;-80
2023/04/28 02:07:06;;;;;;;10.32;6.90;;;5.50;99.90;;;;;;5052264;28;20041;-79
2023/04/28 02:09:32;;;;;;;11.07;7.10;;;5.60;99.90;;;;;;5052339;28;20041;-79
2023/04/28 02:12:01;;;;;;;10.40;6.80;;;5.60;99.90;;;;;;5052714;28;20041;-79
2023/04/28 02:14:27;;;;;;;11.57;6.82;;;5.50;99.90;;;;;;5052424;28;20108;-79
2023/04/28 02:16:53;;;;;;;9.85;6.60;;;5.60;99.90;;;;;;5053356;28;20037;-79
2023/04/28 02:19:18;;;;;;;9.80;7.60;;;5.60;99.90;;;;;;5050970;28;20524;-79
2023/04/28 02:21:44;;;;;;;9.88;6.63;;;5.60;99.90;;;;;;5053874;28;20583;-79
2023/04/28 02:24:10;;;;;;;10.95;7.38;;;5.60;99.90;;;;;;5052350;28;20041;-79
2023/04/28 02:26:35;;;;;;;9.80;6.97;;;5.60;99.90;;;;;;5052101;28;20130;-79
2023/04/28 02:29:03;;;;;;;10.65;7.40;;;5.60;99.90;;;;;;5052093;28;20440;-79
2023/04/28 02:31:28;;;;;;;10.32;7.68;;;5.50;99.90;;;;;;5053399;28;20400;-79
2023/04/28 02:33:54;;;;;;;15.35;8.52;;;5.50;99.90;;;;;;5053510;28;20037;-79
2023/04/28 02:36:20;;;;;;;10.48;7.10;;;5.50;99.90;;;;;;5052021;28;20040;-80
2023/04/28 02:38:46;;;;;;;14.02;7.82;;;5.50;99.90;;;;;;5051782;28;20056;-80
2023/04/28 02:41:13;;;;;;;11.20;7.82;;;5.50;99.90;;;;;;5053034;28;20047;-79
2023/04/28 02:43:40;;;;;;;11.32;7.68;;;5.50;99.90;;;;;;5053335;28;20570;-80
2023/04/28 02:46:05;;;;;;;11.90;8.05;;;5.50;99.90;;;;;;5052054;28;20044;-80
2023/04/28 02:48:34;;;;;;;13.38;8.63;;;5.50;99.90;;;;;;5053037;28;20393;-79
2023/04/28 02:51:00;;;;;;;13.20;8.70;;;5.50;99.90;;;;;;5053234;28;20045;-79
2023/04/28 02:53:25;;;;;;;11.60;8.25;;;5.50;99.90;;;;;;5052956;28;20221;-80
2023/04/28 02:55:51;;;;;;;14.00;8.68;;;5.50;99.90;;;;;;5057928;28;20544;-79
2023/04/28 02:58:17;;;;;;;14.63;9.23;;;5.50;99.90;;;;;;5060614;28;20048;-79
2023/04/28 03:00:42;;;;;;;14.85;8.85;;;5.50;99.90;;;;;;5052956;28;20044;-79
2023/04/28 03:03:08;;;;;;;13.13;8.70;;;5.50;99.90;;;;;;5053153;28;20043;-79
2023/04/28 03:05:34;;;;;;;15.13;9.60;;;5.50;99.90;;;;;;5051562;28;20032;-82
2023/04/28 03:07:59;;;;;;;13.52;9.10;;;5.50;99.90;;;;;;5051554;28;20467;-80
2023/04/28 03:10:25;;;;;;;15.50;10.00;;;5.50;99.90;;;;;;5051473;28;20049;-80
2023/04/28 03:12:51;;;;;;;14.45;10.07;;;5.50;99.90;;;;;;5051360;28;20076;-80
2023/04/28 03:15:16;;;;;;;13.60;9.82;;;5.50;99.90;;;;;;5051521;28;20040;-80
2023/04/28 03:17:42;;;;;;;15.10;9.50;;;5.50;99.90;;;;;;5050707;28;20045;-79
2023/04/28 03:20:09;;;;;;;13.98;9.55;;;5.50;99.90;;;;;;5052509;28;20052;-80
2023/04/28 03:22:35;;;;;;;15.70;10.32;;;5.60;99.90;;;;;;5051123;28;20041;-80
2023/04/28 03:25:00;;;;;;;17.73;10.57;;;5.50;99.90;;;;;;5051297;28;20037;-79
2023/04/28 03:27:26;;;;;;;16.13;10.30;;;5.50;99.90;;;;;;5051338;28;20128;-79
2023/04/28 03:29:52;;;;;;;16.63;9.90;;;5.50;99.90;;;;;;5051172;28;20519;-79
2023/04/28 03:32:17;;;;;;;16.23;10.68;;;5.50;99.90;;;;;;5051277;28;20388;-79
2023/04/28 03:34:43;;;;;;;17.85;10.57;;;5.50;99.90;;;;;;5052828;28;20500;-79
2023/04/28 03:37:09;;;;;;;14.98;9.82;;;5.50;99.90;;;;;;5050883;28;20135;-80
2023/04/28 03:39:35;;;;;;;16.80;10.50;;;5.50;99.90;;;;;;5051007;28;20033;-80
2023/04/28 03:42:01;;;;;;;19.65;11.20;;;5.50;99.90;;;;;;5052363;28;20412;-80
2023/04/28 03:44:26;;;;;;;16.02;10.55;;;5.50;99.90;;;;;;5050909;28;20053;-80
2023/04/28 03:46:52;;;;;;;16.63;11.13;;;5.50;99.90;;;;;;5050700;28;20041;-80
2023/04/28 03:49:17;;;;;;;17.10;10.77;;;5.50;99.90;;;;;;5051967;28;20037;-79
2023/04/28 03:51:43;;;;;;;17.92;11.65;;;5.50;99.90;;;;;;5051104;28;20045;-80
2023/04/28 03:54:08;;;;;;;17.65;11.35;;;5.50;99.90;;;;;;5050703;28;20052;-80
2023/04/28 03:56:34;;;;;;;20.70;12.07;;;5.50;99.90;;;;;;5063789;28;20036;-80
2023/04/28 03:58:59;;;;;;;19.48;11.40;;;5.50;99.90;;;;;;5052968;28;20048;-80
2023/04/28 04:01:25;;;;;;;17.95;11.10;;;5.50;99.90;;;;;;5050944;28;20488;-80
2023/04/28 04:03:51;;;;;;;18.13;11.52;;;5.60;99.90;;;;;;5050564;28;20048;-79
2023/04/28 04:06:16;;;;;;;17.95;11.05;;;5.60;99.90;;;;;;5052140;28;20495;-80
2023/04/28 04:08:42;;;;;;;18.83;11.05;;;5.60;99.90;;;;;;5050742;28;20122;-80
2023/04/28 04:11:08;;;;;;;18.65;11.95;;;5.60;99.90;;;;;;5050968;28;20045;-80
2023/04/28 04:13:33;;;;;;;17.80;11.60;;;5.60;99.90;;;;;;5050984;28;20044;-80
2023/04/28 04:15:59;;;;;;;18.85;11.20;;;5.60;99.90;;;;;;5051467;28;20048;-82
2023/04/28 04:18:26;;;;;;;19.45;11.77;;;5.60;99.90;;;;;;5050164;28;20180;-80
2023/04/28 04:20:54;;;;;;;18.67;11.52;;;5.60;99.90;;;;;;5051835;28;20045;-80
2023/04/28 04:23:20;;;;;;;19.92;11.80;;;5.60;99.90;;;;;;5051884;28;20078;-79
2023/04/28 04:25:46;;;;;;;17.85;11.35;;;5.60;99.90;;;;;;5051685;28;20037;-80
2023/04/28 04:28:11;;;;;;;19.08;12.02;;;5.60;99.90;;;;;;5050592;28;20049;-80
2023/04/28 04:30:37;;;;;;;17.30;11.32;;;5.60;99.90;;;;;;5050337;28;20044;-80
2023/04/28 04:33:03;;;;;;;15.85;10.82;;;5.60;99.90;;;;;;5050323;28;20052;-79
2023/04/28 04:35:28;;;;;;;17.10;10.85;;;5.60;99.90;;;;;;5050324;28;20048;-80
2023/04/28 04:37:54;;;;;;;18.95;11.45;;;5.60;99.90;;;;;;5049887;28;20037;-79
2023/04/28 04:40:20;;;;;;;18.98;11.48;;;5.60;99.90;;;;;;5050404;28;20037;-79
2023/04/28 04:42:45;;;;;;;18.20;11.40;;;5.70;99.90;;;;;;5052186;28;20037;-79
2023/04/28 04:45:11;;;;;;;19.52;12.25;;;5.70;99.90;;;;;;5054291;28;20091;-80
2023/04/28 04:47:37;;;;;;;19.60;11.50;;;5.60;99.90;;;;;;5055846;28;20106;-81
2023/04/28 04:50:02;;;;;;;18.20;11.35;;;5.70;99.90;;;;;;5054009;28;20501;-80
2023/04/28 04:52:28;;;;;;;16.88;11.18;;;5.70;99.90;;;;;;5054320;28;20053;-80
2023/04/28 04:54:55;;;;;;;18.05;11.20;;;5.70;99.90;;;;;;5054055;28;20037;-80
2023/04/28 04:57:20;;;;;;;17.80;11.27;;;5.70;99.90;;;;;;5067988;28;20492;-80
2023/04/28 04:59:46;;;;;;;16.48;11.10;;;5.70;99.90;;;;;;5054078;28;20041;-80
2023/04/28 05:02:12;;;;;;;18.33;10.45;;;5.70;99.90;;;;;;5054205;28;20385;-80
2023/04/28 05:04:37;;;;;;;18.35;10.95;;;5.70;99.90;;;;;;5054389;28;20041;-81
2023/04/28 05:07:03;;;;;;;19.38;11.40;;;5.70;99.90;;;;;;5055342;28;20052;-81
2023/04/28 05:09:29;;;;;;;17.35;10.70;;;5.80;99.90;;;;;;5055351;28;20041;-81
2023/04/28 05:11:55;;;;;;;17.20;10.55;;;5.80;99.90;;;;;;5055614;28;20037;-81
2023/04/28 05:14:21;;;;;;;17.98;11.00;;;5.80;99.90;;;;;;5054109;28;20127;-80
2023/04/28 05:16:46;;;;;;;18.00;11.23;;;5.90;99.90;;;;;;5053878;28;20584;-79
2023/04/28 05:19:12;;;;;;;18.35;10.52;;;5.90;99.90;;;;;;5053808;28;20403;-80
2023/04/28 05:21:37;;;;;;;17.73;11.40;;;5.90;99.90;;;;;;5054013;28;20086;-80
2023/04/28 05:24:03;;;;;;;18.05;10.77;;;5.90;99.90;;;;;;5053886;28;20455;-80
2023/04/28 05:26:29;;;;;;;17.40;10.18;;;5.90;99.90;;;;;;5054131;28;20567;-80
2023/04/28 05:28:54;;;;;;;17.33;11.05;;;5.90;99.90;;;;;;5053766;28;20045;-81
2023/04/28 05:31:20;;;;;;;15.68;11.13;;;6.00;99.90;;;;;;5053613;28;20041;-80
2023/04/28 05:33:45;;;;;;;17.23;11.05;;;6.00;99.90;;;;;;5053770;28;20041;-80
2023/04/28 05:36:11;;;;;;;17.60;11.00;;;6.00;99.90;;;;;;5053545;28;20052;-80
2023/04/28 05:38:37;;;;;;;17.38;10.00;;;6.10;99.90;;;;;;5053613;28;20048;-81
2023/04/28 05:41:03;;;;;;;17.15;10.32;;;6.10;99.90;;;;;;5053962;28;20045;-81
2023/04/28 05:43:28;;;;;;;17.30;10.55;;;6.10;99.90;;;;;;5053894;28;20064;-81
2023/04/28 05:45:54;;;;;;;17.67;10.63;;;6.20;99.90;;;;;;5053751;28;20045;-80
2023/04/28 05:48:20;;;;;;;16.60;10.82;;;6.30;99.90;;;;;;5055369;28;20037;-80
2023/04/28 05:50:45;;;;;;;19.70;10.38;;;6.30;99.90;;;;;;5055256;28;20037;-81
2023/04/28 05:53:11;;;;;;;16.52;10.48;;;6.40;99.90;;;;;;5053674;28;20083;-81
2023/04/28 05:55:37;;;;;;;15.30;9.63;;;6.40;99.90;;;;;;5058775;28;20072;-81
2023/04/28 05:58:03;;;;;;;15.00;10.02;;;6.50;99.90;;;;;;5065068;28;20444;-81
2023/04/28 06:00:29;;;;;;;17.13;10.68;;;6.50;99.90;;;;;;5053241;28;20053;-80
2023/04/28 06:02:54;;;;;;;17.98;10.80;;;6.50;99.90;;;;;;5053664;28;20068;-81
2023/04/28 06:05:21;;;;;;;16.60;10.57;;;6.50;99.90;;;;;;5053075;28;20068;-80
2023/04/28 06:07:46;;;;;;;16.10;10.65;;;6.50;99.90;;;;;;5053074;28;20047;-81
2023/04/28 06:10:12;;;;;;;17.88;10.10;;;6.60;99.90;;;;;;5054635;28;20041;-82
2023/04/28 06:12:38;;;;;;;14.77;10.18;;;6.60;99.90;;;;;;5052909;28;20040;-81
2023/04/28 06:15:05;;;;;;;17.98;10.70;;;6.60;99.90;;;;;;5053253;28;20171;-81
2023/04/28 06:17:32;;;;;;;16.98;10.18;;;6.60;99.90;;;;;;5052799;28;20048;-82
2023/04/28 06:19:58;;;;;;;15.27;10.00;;;6.60;99.90;;;;;;5052682;28;20045;-83
2023/04/28 06:22:24;;;;;;;16.25;10.10;;;6.70;99.90;;;;;;5054026;28;20040;-82
2023/04/28 06:24:50;;;;;;;14.95;10.23;;;6.70;99.90;;;;;;5052745;28;20037;-82
2023/04/28 06:27:15;;;;;;;14.93;10.35;;;6.70;99.90;;;;;;5053982;28;20040;-83
2023/04/28 06:29:41;;;;;;;15.43;10.02;;;6.80;99.90;;;;;;5052452;28;20123;-81
2023/04/28 06:32:07;;;;;;;16.95;10.15;;;6.80;99.90;;;;;;5053241;28;20047;-80
2023/04/28 06:34:33;;;;;;;13.57;9.30;;;6.90;99.90;;;;;;5052703;28;20083;-83
2023/04/28 06:36:59;;;;;;;15.20;9.63;;;7.00;99.90;;;;;;5052553;28;20094;-81
2023/04/28 06:39:25;;;;;;;17.98;10.57;;;7.00;99.90;;;;;;5052885;28;20041;-81
2023/04/28 06:41:50;;;;;;;16.45;9.63;;;7.10;99.90;;;;;;5052916;28;20040;-83
2023/04/28 06:44:16;;;;;;;16.48;10.07;;;7.10;99.90;;;;;;5054508;28;20044;-81
2023/04/28 06:46:42;;;;;;;16.27;9.30;;;7.10;99.90;;;;;;5054059;28;20033;-83
2023/04/28 06:49:07;;;;;;;16.25;10.20;;;7.20;99.90;;;;;;5053247;28;20037;-81
2023/04/28 06:51:33;;;;;;;14.68;9.45;;;7.30;99.90;;;;;;5052387;28;20040;-82
2023/04/28 06:53:59;;;;;;;15.02;9.48;;;7.40;99.90;;;;;;5053825;28;20048;-83
2023/04/28 06:56:24;;;;;;;14.38;9.77;;;7.40;99.90;;;;;;5063706;28;20420;-82
2023/04/28 06:58:50;;;;;;;13.25;9.02;;;7.50;99.90;;;;;;5056255;28;20052;-81
2023/04/28 07:01:16;;;;;;;17.95;9.25;;;7.60;99.90;;;;;;5053337;28;20041;-81
2023/04/28 07:03:42;;;;;;;13.27;9.20;;;7.60;99.90;;;;;;5053207;28;20041;-83
2023/04/28 07:06:08;;;;;;;14.55;9.07;;;7.70;99.90;;;;;;5051128;28;20037;-82
2023/04/28 07:08:34;;;;;;;14.60;9.70;;;7.80;99.90;;;;;;5052208;28;20094;-81
2023/04/28 07:11:03;;;;;;;13.50;9.02;;;7.80;99.90;;;;;;5051993;28;20044;-82
2023/04/28 07:13:29;;;;;;;14.75;9.35;;;7.90;99.90;;;;;;5052722;28;20040;-84
2023/04/28 07:15:55;;;;;;;13.73;9.20;;;7.90;99.90;;;;;;5051878;28;20056;-82
2023/04/28 07:18:20;;;;;;;15.93;9.10;;;8.00;99.90;;;;;;5051359;28;20041;-84
2023/04/28 07:20:47;;;;;;;17.08;10.25;;;8.10;99.90;;;;;;5051130;28;20041;-83
2023/04/28 07:23:12;;;;;;;15.02;8.75;;;8.10;99.90;;;;;;5052665;28;20500;-85
2023/04/28 07:25:40;;;;;;;14.63;10.18;;;8.10;99.90;;;;;;5051965;28;20047;-82
2023/04/28 07:28:05;;;;;;;23.92;9.65;;;8.10;99.90;;;;;;5052924;28;20052;-84
2023/04/28 07:30:31;;;;;;;12.02;9.05;;;8.10;99.90;;;;;;5051265;28;20045;-81
2023/04/28 07:32:57;;;;;;;14.38;9.32;;;8.00;99.90;;;;;;5051037;28;20084;-83
2023/04/28 07:35:23;;;;;;;15.02;9.20;;;8.00;99.90;;;;;;5050864;28;20071;-85
2023/04/28 07:37:48;;;;;;;14.95;9.75;;;8.00;99.90;;;;;;5050577;28;20045;-82
2023/04/28 07:40:15;;;;;;;16.25;9.35;;;8.00;99.90;;;;;;5050823;28;20111;-83
2023/04/28 07:42:40;;;;;;;12.80;9.30;;;8.00;99.90;;;;;;5051393;28;20068;-84
2023/04/28 07:45:06;;;;;;;12.48;9.55;;;8.10;99.90;;;;;;5053030;28;20040;-84
2023/04/28 07:47:32;;;;;;;16.02;10.20;;;8.20;99.90;;;;;;5051789;28;20083;-83
2023/04/28 07:49:59;;;;;;;13.70;9.30;;;8.20;99.90;;;;;;5051058;28;20072;-82
2023/04/28 07:52:25;;;;;;;17.85;10.27;;;8.40;99.90;;;;;;5051851;28;20045;-81
2023/04/28 07:54:50;;;;;;;14.30;9.85;;;8.50;99.90;;;;;;5051756;28;20428;-83
2023/04/28 07:57:16;;;;;;;14.32;9.82;;;8.70;99.90;;;;;;5049849;28;20060;-82
2023/04/28 07:59:42;;;;;;;15.57;10.18;;;8.70;99.90;;;;;;5051294;28;20033;-81
2023/04/28 08:02:07;;;;;;;13.43;9.52;;;8.80;99.90;;;;;;5052011;28;20497;-82
2023/04/28 08:04:33;;;;;;;13.90;9.57;;;8.80;99.90;;;;;;5050918;28;20069;-83
2023/04/28 08:07:00;;;;;;;18.63;9.60;;;8.80;99.90;;;;;;5050346;28;20051;-84
2023/04/28 08:09:25;;;;;;;13.57;9.57;;;8.80;99.90;;;;;;5051525;28;20032;-83
2023/04/28 08:11:51;;;;;;;14.55;9.40;;;8.70;99.90;;;;;;5050507;28;20041;-81
2023/04/28 08:14:17;;;;;;;14.15;9.45;;;8.70;99.90;;;;;;5050227;28;20037;-82
2023/04/28 08:16:42;;;;;;;14.20;9.52;;;8.70;99.90;;;;;;5050582;28;20045;-83
2023/04/28 08:19:08;;;;;;;14.13;9.48;;;8.60;99.90;;;;;;5052481;28;20098;-83
2023/04/28 08:21:33;;;;;;;13.88;9.02;;;8.70;99.90;;;;;;5050148;28;20041;-81
2023/04/28 08:23:59;;;;;;;14.32;10.07;;;8.70;99.90;;;;;;5050534;28;20037;-82
2023/04/28 08:26:25;;;;;;;14.70;9.45;;;8.70;99.90;;;;;;5052030;28;20048;-82
2023/04/28 08:28:51;;;;;;;12.82;9.55;;;8.70;99.90;;;;;;5049943;28;20049;-82
2023/04/28 08:31:17;;;;;;;13.10;9.77;;;8.60;99.90;;;;;;5050643;28;20053;-82
2023/04/28 08:33:43;;;;;;;13.85;9.88;;;8.60;99.90;;;;;;5050909;28;20048;-81
2023/04/28 08:36:10;;;;;;;13.27;9.40;;;8.70;99.90;;;;;;5050057;28;20128;-81
2023/04/28 08:38:38;;;;;;;14.48;9.80;;;8.60;99.90;;;;;;5051142;28;20045;-82
2023/04/28 08:41:03;;;;;;;15.68;10.13;;;8.70;99.90;;;;;;5052166;28;20063;-81
2023/04/28 08:43:34;;;;;;;15.77;10.48;;;8.80;99.90;;;;;;5051916;28;20510;-82
2023/04/28 08:46:05;;;;;;;14.73;9.63;;;8.80;99.90;;;;;;5051605;28;20172;-81
2023/04/28 08:48:38;;;;;;;16.90;10.10;;;8.80;99.90;;;;;;5051613;28;20044;-82
2023/04/28 08:51:06;;;;;;;17.23;10.40;;;8.80;99.90;;;;;;5050956;28;20497;-81
2023/04/28 08:53:36;;;;;;;15.70;9.98;;;8.90;99.90;;;;;;5051183;28;20456;-81
2023/04/28 08:56:05;;;;;;;17.30;10.75;;;9.00;99.90;;;;;;5059651;28;20051;-80
2023/04/28 08:58:31;;;;;;;15.75;11.50;;;9.00;99.90;;;;;;5059812;28;20497;-81
2023/04/28 09:00:56;;;;;;;14.07;10.25;;;9.10;99.90;;;;;;5050104;28;20116;-81
2023/04/28 09:03:22;;;;;;;16.52;10.88;;;9.30;99.90;;;;;;5050432;28;20573;-80
2023/04/28 09:05:48;;;;;;;15.23;10.52;;;9.50;99.90;;;;;;5050598;28;20068;-80
2023/04/28 09:08:14;;;;;;;14.90;10.00;;;9.60;99.90;;;;;;5050413;28;20094;-80
2023/04/28 09:10:40;;;;;;;18.05;10.75;;;9.70;99.90;;;;;;5050689;28;20052;-80
2023/04/28 09:13:06;;;;;;;15.90;10.88;;;9.80;99.90;;;;;;5051182;28;20045;-80
2023/04/28 09:15:36;;;;;;;15.50;11.05;;;9.90;99.90;;;;;;5050787;28;20052;-79
2023/04/28 09:18:03;;;;;;;15.60;10.40;;;10.00;99.90;;;;;;5052747;28;20045;-80
2023/04/28 09:20:31;;;;;;;14.77;10.23;;;10.00;99.90;;;;;;5052445;28;20045;-81
2023/04/28 09:23:14;;;;;;;15.93;10.60;;;10.20;99.90;;;;;;5052146;28;20415;-80
2023/04/28 09:25:39;;;;;;;15.50;10.60;;;10.30;99.90;;;;;;5050888;28;20498;-80
2023/04/28 09:28:20;;;;;;;13.00;9.50;;;10.40;99.90;;;;;;5050751;28;20099;-80
2023/04/28 09:30:46;;;;;;;14.00;10.10;;;10.60;99.90;;;;;;5056523;28;20044;-81
2023/04/28 09:33:12;;;;;;;14.18;9.80;;;10.80;99.90;;;;;;5054860;28;20045;-81
2023/04/28 09:35:42;;;;;;;11.80;9.18;;;10.90;99.90;;;;;;5055151;28;20194;-81
2023/04/28 09:38:08;;;;;;;14.38;10.18;;;11.10;99.90;;;;;;5055438;28;20048;-80
2023/04/28 09:40:59;;;;;;;14.77;9.75;;;11.30;99.90;;;;;;5054751;28;20036;-80
2023/04/28 09:43:34;;;;;;;13.32;8.90;;;11.50;99.90;;;;;;5054324;28;20060;-81
2023/04/28 09:46:03;;;;;;;15.75;9.82;;;11.60;99.90;;;;;;5055968;28;20124;-80
2023/04/28 09:48:30;;;;;;;13.40;9.70;;;11.70;99.90;;;;;;5053812;28;20139;-80
2023/04/28 09:50:58;;;;;;;12.07;9.20;;;11.80;99.90;;;;;;5056133;28;20112;-79
2023/04/28 09:53:24;;;;;;;13.25;9.38;;;12.10;99.90;;;;;;5054858;28;20033;-80
2023/04/28 09:55:52;;;;;;;16.27;10.10;;;12.40;99.90;;;;;;5060809;28;20032;-80
2023/04/28 09:58:22;;;;;;;13.50;9.50;;;12.60;99.90;;;;;;5061327;28;20055;-80
2023/04/28 10:00:56;;;;;;;12.63;9.50;;;12.80;99.90;;;;;;5053685;28;20048;-80
2023/04/28 10:03:26;;;;;;;17.00;10.30;;;12.90;99.90;;;;;;5055800;28;20487;-80
2023/04/28 10:05:52;;;;;;;14.18;9.30;;;13.00;99.90;;;;;;5053315;28;20056;-81
2023/04/28 10:08:18;;;;;;;15.90;8.88;;;12.90;99.90;;;;;;5055009;28;20037;-80
2023/04/28 10:10:47;;;;;;;14.18;9.27;;;12.90;99.90;;;;;;5053843;28;20041;-80
2023/04/28 10:13:18;;;;;;;13.65;9.55;;;13.00;99.90;;;;;;5053298;28;20597;-80
2023/04/28 10:15:44;;;;;;;15.80;9.40;;;13.10;99.90;;;;;;5054140;28;20381;-79
2023/04/28 10:18:12;;;;;;;11.73;8.90;;;13.10;99.90;;;;;;5056387;28;20060;-78
2023/04/28 10:20:37;;;;;;;13.45;9.48;;;13.10;99.90;;;;;;5054513;28;20287;-80
2023/04/28 10:23:34;;;;;;;16.70;10.13;;;13.00;99.90;;;;;;5054245;28;20086;-80
2023/04/28 10:26:01;;;;;;;11.70;9.30;;;12.90;99.90;;;;;;5052693;28;20510;-80
2023/04/28 10:28:27;;;;;;;14.50;9.68;;;12.80;99.90;;;;;;5052257;28;20116;-80
2023/04/28 10:31:09;;;;;;;13.13;9.50;;;12.70;99.90;;;;;;5052791;28;20044;-79
2023/04/28 10:33:36;;;;;;;14.88;10.52;;;12.60;99.90;;;;;;5053384;28;20049;-80
2023/04/28 10:36:03;;;;;;;12.30;9.43;;;12.60;99.90;;;;;;5052595;28;20069;-80
2023/04/28 10:38:28;;;;;;;14.07;10.25;;;12.60;99.90;;;;;;5052052;28;20538;-79
2023/04/28 10:40:54;;;;;;;13.10;9.90;;;12.60;99.90;;;;;;5051457;28;20120;-79
2023/04/28 10:43:31;;;;;;;16.80;10.05;;;12.70;99.90;;;;;;5052264;28;20040;-80
2023/04/28 10:45:59;;;;;;;12.57;9.80;;;12.70;99.90;;;;;;5052081;28;20040;-80
2023/04/28 10:48:28;;;;;;;15.68;10.13;;;12.60;99.90;;;;;;5053253;28;20036;-80
2023/04/28 10:51:06;;;;;;;14.77;9.35;;;12.60;99.90;;;;;;5053136;28;20052;-80
2023/04/28 10:53:57;;;;;;;14.02;9.98;;;12.60;99.90;;;;;;5051422;28;20041;-79
2023/04/28 10:56:25;;;;;;;11.85;9.57;;;12.60;99.90;;;;;;5056891;28;20053;-79
2023/04/28 10:58:57;;;;;;;12.77;10.32;;;12.50;99.90;;;;;;5054467;28;20740;-79
2023/04/28 11:01:23;;;;;;;15.98;10.73;;;12.50;99.90;;;;;;5052561;28;20048;-79
2023/04/28 11:03:50;;;;;;;13.43;9.88;;;12.40;99.90;;;;;;5052535;28;20075;-78
2023/04/28 11:06:34;;;;;;;14.98;10.13;;;12.30;99.90;;;;;;5051174;28;20055;-78
2023/04/28 11:09:32;;;;;;;14.88;10.57;;;12.20;99.90;;;;;;5050996;28;20059;-78
2023/04/28 11:12:09;;;;;;;15.90;10.55;;;12.20;99.90;;;;;;5050990;28;20048;-78
2023/04/28 11:14:36;;;;;;;16.25;10.85;;;12.20;99.90;;;;;;5051034;28;20044;-78
2023/04/28 11:17:05;;;;;;;13.13;10.57;;;12.20;99.90;;;;;;5050645;28;20056;-78
2023/04/28 11:19:32;;;;;;;13.52;10.63;;;12.20;99.90;;;;;;5050569;28;20036;-78
2023/04/28 11:22:03;;;;;;;12.90;10.25;;;12.10;99.90;;;;;;5050931;28;20080;-77
2023/04/28 11:24:29;;;;;;;14.45;10.95;;;12.10;99.90;;;;;;5050625;28;20066;-77
2023/04/28 11:26:59;;;;;;;18.17;11.20;;;12.10;99.90;;;;;;5050699;28;20041;-78
2023/04/28 11:29:39;;;;;;;15.32;10.70;;;12.10;99.90;;;;;;5050976;28;20041;-77
2023/04/28 11:32:06;;;;;;;15.65;11.30;;;12.10;99.90;;;;;;5051915;28;20041;-78
2023/04/28 11:34:32;;;;;;;13.60;10.77;;;12.10;99.90;;;;;;5050416;28;20040;-78
2023/04/28 11:36:58;;;;;;;16.58;10.73;;;12.10;99.90;;;;;;5050427;28;20143;-78
2023/04/28 11:39:29;;;;;;;12.73;10.40;;;12.20;99.90;;;;;;5051571;28;20047;-78
2023/04/28 11:41:55;;;;;;;14.73;10.45;;;12.30;99.90;;;;;;5050756;28;20041;-78
2023/04/28 11:44:23;;;;;;;14.68;10.55;;;12.30;99.90;;;;;;5050606;28;20447;-78
2023/04/28 11:46:59;;;;;;;19.02;11.65;;;12.40;99.90;;;;;;5050502;28;20492;-79
2023/04/28 11:49:29;;;;;;;17.23;11.13;;;12.50;99.90;;;;;;5050399;28;20037;-78
2023/04/28 11:52:05;;;;;;;13.38;10.73;;;12.50;99.90;;;;;;5050323;28;20560;-78
2023/04/28 11:54:31;;;;;;;14.20;10.35;;;12.50;99.90;;;;;;5051604;28;20040;-79
2023/04/28 11:56:58;;;;;;;14.98;10.45;;;12.60;99.90;;;;;;5064406;28;20119;-79
2023/04/28 11:59:24;;;;;;;14.18;10.43;;;12.60;99.90;;;;;;5050741;28;20496;-80
2023/04/28 12:01:56;;;;;;;13.25;9.40;;;12.60;99.90;;;;;;5050855;28;20499;-79
2023/04/28 12:04:31;;;;;;;13.00;9.45;;;12.60;99.90;;;;;;5050801;28;20112;-79
2023/04/28 12:07:04;;;;;;;13.93;9.93;;;12.60;99.90;;;;;;5050587;28;20076;-80
2023/04/28 12:09:31;;;;;;;10.25;8.98;;;12.60;99.90;;;;;;5050781;28;20044;-79
2023/04/28 12:12:04;;;;;;;12.93;9.90;;;12.60;99.90;;;;;;5051027;28;20045;-80
2023/04/28 12:14:34;;;;;;;12.20;9.68;;;12.60;99.90;;;;;;5052563;28;20037;-80
2023/04/28 12:17:00;;;;;;;15.88;9.80;;;12.50;99.90;;;;;;5050817;28;20045;-81
2023/04/28 12:19:26;;;;;;;14.52;9.68;;;12.50;99.90;;;;;;5050758;28;20044;-81
2023/04/28 12:22:18;;;;;;;11.30;9.65;;;12.50;99.90;;;;;;5050923;28;20033;-80
2023/04/28 12:24:44;;;;;;;11.75;9.13;;;12.70;99.90;;;;;;5050105;28;20045;-81
2023/04/28 12:27:20;;;;;;;12.25;9.18;;;12.70;99.90;;;;;;5051348;28;20075;-81
2023/04/28 12:29:46;;;;;;;13.30;9.75;;;12.70;99.90;;;;;;5050823;28;20052;-81
2023/04/28 12:32:12;;;;;;;10.80;9.20;;;12.70;99.90;;;;;;5050571;28;20056;-81
2023/04/28 12:34:40;;;;;;;11.95;10.00;;;12.60;99.90;;;;;;5050428;28;20055;-81
2023/04/28 12:37:06;;;;;;;14.30;10.55;;;12.50;99.90;;;;;;5050535;28;20049;-81
2023/04/28 12:39:33;;;;;;;13.02;9.68;;;12.40;99.90;;;;;;5051567;28;20401;-82